Illiopolis, Illinois
Current Conditions -  °F | °C
As of 2:54 AM on Friday 19 Dec 2014 (Local Time) from KDEC Reporting Station
Clear Clear  
Wind Chill: 12°   Ceiling: Unl
Heat Index: 20°   Visibility: 7mi
Dew Point: 17°   Wind: 6mph
Humidity: 89%   Direction: 30°NNE
Pressure: 30.29"   Gusts: NA
Location:  39.85°N, 89.24°W
Report Text: KDEC 190854Z AUTO 03005KT 7SM CLR M07/M08 A3029 RMK AO2 SLP266 T10671083 56002 TSNO
Loading
Personal Weather Stations






























Interactive Weather Map New forecast layout! Learn more

10-Day Weather Forecast

Advertisements
Track Severe Weather on mobile